PWSweather.com
Personal Weather Stations
Station Observations
DELHOVEN
DormagenDE 41540

DormagenDE 41540

Lat: 51.083, Lon: 6.775

Elevation: 120

Station Type: WH1080

Latest ConditionsUpdated 8:55:03 AM GMT+01:01 Sunday, Dec 11, 2016
Currently Today's Max Today's Min Today's Average
Temperature 46.6°F8.1°C 53.1°F11.7°C 46.2°F7.9°C 50.0°F10.0°C
Dew Point 43.2°F6.2°C 47.4°F8.6°C 42.9°F6.1°C 45.1°F7.3°C
Winds 3.8 mph SW6.1 kmh SW 20.6 mph NW33.2 kmh NW - 8.5 mph 13.7 kmh
Wind Gusts 5.4 mph8.7 kmh 27.3 mph43.9 kmh - -
Humidity 88% 88% 75% 83%
Pressure 30.11 in1019.6 mb 30.11 in1019.6 mb 29.96 in1014.6 mb -
Precipitation - 0.01 in0.3 mm - -
Hour Temp Dew Point Humidity Winds Wind Gusts Pressure Precip Precip Rate Daily Precip Total
08:55 AM 46.6°F8.1°C 43.2°F6.2°C 88% 3.8 mph SW6.1 kmh SW 5.4 mph8.7 kmh 30.11 in1019.6 mb 0.00 in0.0 mm 0.00 in0.0 mm 0.01 in0.3 mm
08:50 AM 46.6°F8.1°C 43.2°F6.2°C 88% 6.0 mph W9.7 kmh W 9.8 mph15.8 kmh 30.11 in1019.6 mb 0.00 in0.0 mm 0.00 in0.0 mm 0.01 in0.3 mm
08:45 AM 46.6°F8.1°C 43.2°F6.2°C 88% 3.1 mph W5.0 kmh W 6.0 mph9.7 kmh 30.11 in1019.6 mb 0.00 in0.0 mm 0.00 in0.0 mm 0.01 in0.3 mm
08:40 AM 46.6°F8.1°C 43.2°F6.2°C 88% 3.1 mph W5.0 kmh W 4.5 mph7.2 kmh 30.11 in1019.6 mb 0.00 in0.0 mm 0.00 in0.0 mm 0.01 in0.3 mm
08:35 AM 46.6°F8.1°C 43.2°F6.2°C 88% 6.9 mph NW11.1 kmh NW 7.6 mph12.2 kmh 30.11 in1019.6 mb 0.00 in0.0 mm 0.00 in0.0 mm 0.01 in0.3 mm
08:30 AM 46.4°F8.0°C 43.0°F6.1°C 88% 4.5 mph W7.2 kmh W 6.0 mph9.7 kmh 30.11 in1019.6 mb 0.00 in0.0 mm 0.00 in0.0 mm 0.01 in0.3 mm
08:25 AM 46.4°F8.0°C 43.0°F6.1°C 88% 3.1 mph W5.0 kmh W 4.5 mph7.2 kmh 30.11 in1019.6 mb 0.00 in0.0 mm 0.00 in0.0 mm 0.01 in0.3 mm
08:20 AM 46.2°F7.9°C 42.9°F6.1°C 88% 3.8 mph NW6.1 kmh NW 7.6 mph12.2 kmh 30.11 in1019.6 mb 0.00 in0.0 mm 0.00 in0.0 mm 0.01 in0.3 mm
08:15 AM 46.2°F7.9°C 42.9°F6.1°C 88% 4.5 mph NW7.2 kmh NW 6.0 mph9.7 kmh 30.10 in1019.3 mb 0.00 in0.0 mm 0.00 in0.0 mm 0.01 in0.3 mm
08:09 AM 46.2°F7.9°C 42.9°F6.1°C 88% 7.6 mph NW12.2 kmh NW 9.2 mph14.8 kmh 30.11 in1019.6 mb 0.00 in0.0 mm 0.00 in0.0 mm 0.01 in0.3 mm
08:04 AM 46.4°F8.0°C 43.0°F6.1°C 88% 4.5 mph NW7.2 kmh NW 7.6 mph12.2 kmh 30.11 in1019.6 mb 0.00 in0.0 mm 0.00 in0.0 mm 0.01 in0.3 mm
07:59 AM 46.4°F8.0°C 43.0°F6.1°C 88% 4.5 mph NW7.2 kmh NW 7.6 mph12.2 kmh 30.10 in1019.3 mb 0.00 in0.0 mm 0.00 in0.0 mm 0.01 in0.3 mm
07:54 AM 46.6°F8.1°C 43.2°F6.2°C 88% 6.0 mph W9.7 kmh W 8.3 mph13.4 kmh 30.10 in1019.3 mb 0.00 in0.0 mm 0.00 in0.0 mm 0.01 in0.3 mm
07:49 AM 46.8°F8.2°C 43.4°F6.3°C 88% 9.8 mph NW15.8 kmh NW 12.1 mph19.5 kmh 30.10 in1019.3 mb 0.00 in0.0 mm 0.00 in0.0 mm 0.01 in0.3 mm
07:44 AM 46.9°F8.3°C 43.3°F6.3°C 87% 4.5 mph W7.2 kmh W 8.3 mph13.4 kmh 30.10 in1019.3 mb 0.00 in0.0 mm 0.00 in0.0 mm 0.01 in0.3 mm
07:39 AM 47.1°F8.4°C 43.5°F6.4°C 87% 9.8 mph NW15.8 kmh NW 13.6 mph21.9 kmh 30.10 in1019.3 mb 0.00 in0.0 mm 0.00 in0.0 mm 0.01 in0.3 mm
07:34 AM 47.1°F8.4°C 43.5°F6.4°C 87% 6.9 mph WNW11.1 kmh WNW 8.3 mph13.4 kmh 30.10 in1019.3 mb 0.00 in0.0 mm 0.00 in0.0 mm 0.01 in0.3 mm
07:29 AM 47.3°F8.5°C 43.3°F6.3°C 86% 7.6 mph W12.2 kmh W 11.4 mph18.3 kmh 30.09 in1019.0 mb 0.00 in0.0 mm 0.00 in0.0 mm 0.01 in0.3 mm
07:24 AM 47.3°F8.5°C 43.3°F6.3°C 86% 8.3 mph SW13.4 kmh SW 11.4 mph18.3 kmh 30.09 in1019.0 mb 0.00 in0.0 mm 0.00 in0.0 mm 0.01 in0.3 mm
07:19 AM 47.5°F8.6°C 43.5°F6.4°C 86% 6.0 mph NW9.7 kmh NW 10.7 mph17.2 kmh 30.09 in1019.0 mb 0.00 in0.0 mm 0.00 in0.0 mm 0.01 in0.3 mm
07:14 AM 47.5°F8.6°C 43.5°F6.4°C 86% 11.4 mph WNW18.3 kmh WNW 17.4 mph28.0 kmh 30.08 in1018.6 mb 0.00 in0.0 mm 0.00 in0.0 mm 0.01 in0.3 mm
07:09 AM 47.5°F8.6°C 43.5°F6.4°C 86% 6.9 mph W11.1 kmh W 12.1 mph19.5 kmh 30.08 in1018.6 mb 0.00 in0.0 mm 0.00 in0.0 mm 0.01 in0.3 mm
07:04 AM 47.5°F8.6°C 43.2°F6.2°C 85% 11.4 mph NW18.3 kmh NW 16.8 mph27.0 kmh 30.08 in1018.6 mb 0.00 in0.0 mm 0.00 in0.0 mm 0.01 in0.3 mm
06:59 AM 47.7°F8.7°C 43.4°F6.3°C 85% 7.6 mph W12.2 kmh W 11.4 mph18.3 kmh 30.08 in1018.6 mb 0.00 in0.0 mm 0.00 in0.0 mm 0.01 in0.3 mm
06:54 AM 47.7°F8.7°C 43.4°F6.3°C 85% 10.7 mph WNW17.2 kmh WNW 15.9 mph25.6 kmh 30.07 in1018.3 mb 0.00 in0.0 mm 0.00 in0.0 mm 0.01 in0.3 mm
06:49 AM 47.7°F8.7°C 43.7°F6.5°C 86% 12.1 mph NW19.5 kmh NW 15.9 mph25.6 kmh 30.07 in1018.3 mb 0.00 in0.0 mm 0.00 in0.0 mm 0.01 in0.3 mm
06:44 AM 47.8°F8.8°C 43.9°F6.6°C 86% 9.8 mph W15.8 kmh W 12.1 mph19.5 kmh 30.06 in1017.9 mb 0.00 in0.0 mm 0.00 in0.0 mm 0.01 in0.3 mm
06:39 AM 47.8°F8.8°C 43.9°F6.6°C 86% 12.1 mph NW19.5 kmh NW 17.4 mph28.0 kmh 30.06 in1017.9 mb 0.00 in0.0 mm 0.00 in0.0 mm 0.01 in0.3 mm
06:34 AM 47.8°F8.8°C 43.9°F6.6°C 86% 9.2 mph 14.8 kmh 14.5 mph23.3 kmh 30.06 in1017.9 mb 0.00 in0.0 mm 0.00 in0.0 mm 0.01 in0.3 mm
06:29 AM 48.0°F8.9°C 43.7°F6.5°C 85% 9.2 mph W14.8 kmh W 12.1 mph19.5 kmh 30.06 in1017.9 mb 0.00 in0.0 mm 0.00 in0.0 mm 0.01 in0.3 mm
06:24 AM 48.0°F8.9°C 43.7°F6.5°C 85% 8.3 mph NW13.4 kmh NW 12.1 mph19.5 kmh 30.06 in1017.9 mb 0.00 in0.0 mm 0.00 in0.0 mm 0.01 in0.3 mm
06:19 AM 48.2°F9.0°C 43.6°F6.4°C 84% 11.4 mph NW18.3 kmh NW 15.9 mph25.6 kmh 30.06 in1017.9 mb 0.00 in0.0 mm 0.00 in0.0 mm 0.01 in0.3 mm
06:14 AM 48.2°F9.0°C 43.6°F6.4°C 84% 10.7 mph W17.2 kmh W 15.2 mph24.5 kmh 30.05 in1017.6 mb 0.00 in0.0 mm 0.00 in0.0 mm 0.01 in0.3 mm
06:09 AM 48.4°F9.1°C 43.8°F6.6°C 84% 13.6 mph W21.9 kmh W 16.8 mph27.0 kmh 30.05 in1017.6 mb 0.00 in0.0 mm 0.00 in0.0 mm 0.01 in0.3 mm
06:04 AM 48.6°F9.2°C 43.9°F6.6°C 84% 8.3 mph WNW13.4 kmh WNW 12.1 mph19.5 kmh 30.05 in1017.6 mb 0.00 in0.0 mm 0.00 in0.0 mm 0.01 in0.3 mm
05:59 AM 48.6°F9.2°C 43.9°F6.6°C 84% 8.3 mph WNW13.4 kmh WNW 12.1 mph19.5 kmh 30.04 in1017.3 mb 0.00 in0.0 mm 0.00 in0.0 mm 0.01 in0.3 mm
05:54 AM 48.7°F9.3°C 44.1°F6.7°C 84% 13.6 mph WNW21.9 kmh WNW 17.4 mph28.0 kmh 30.03 in1016.9 mb 0.00 in0.0 mm 0.00 in0.0 mm 0.01 in0.3 mm
05:49 AM 48.7°F9.3°C 44.1°F6.7°C 84% 16.8 mph WNW27.0 kmh WNW 22.1 mph35.6 kmh 30.04 in1017.3 mb 0.00 in0.0 mm 0.00 in0.0 mm 0.01 in0.3 mm
05:44 AM 48.9°F9.4°C 44.6°F7.0°C 85% 13.0 mph WNW20.9 kmh WNW 19.0 mph30.6 kmh 30.03 in1016.9 mb 0.00 in0.0 mm 0.00 in0.0 mm 0.01 in0.3 mm
05:39 AM 49.3°F9.6°C 45.0°F7.2°C 85% 13.6 mph W21.9 kmh W 15.9 mph25.6 kmh 30.02 in1016.6 mb 0.00 in0.0 mm 0.00 in0.0 mm 0.01 in0.3 mm
05:34 AM 49.5°F9.7°C 45.1°F7.3°C 85% 20.6 mph NW33.2 kmh NW 27.3 mph43.9 kmh 30.02 in1016.6 mb 0.00 in0.0 mm 0.00 in0.0 mm 0.01 in0.3 mm
05:29 AM 49.6°F9.8°C 45.3°F7.4°C 85% 16.8 mph W27.0 kmh W 22.8 mph36.7 kmh 30.02 in1016.6 mb 0.00 in0.0 mm 0.00 in0.0 mm 0.01 in0.3 mm
05:24 AM 49.8°F9.9°C 45.8°F7.7°C 86% 16.8 mph WNW27.0 kmh WNW 21.3 mph34.3 kmh 30.01 in1016.3 mb 0.00 in0.0 mm 0.00 in0.0 mm 0.01 in0.3 mm
05:19 AM 49.8°F9.9°C 45.8°F7.7°C 86% 15.2 mph NE24.5 kmh NE 21.3 mph34.3 kmh 30.00 in1015.9 mb 0.00 in0.0 mm 0.00 in0.0 mm 0.01 in0.3 mm
05:14 AM 50.0°F10.0°C 46.0°F7.8°C 86% 12.1 mph 19.5 kmh 20.6 mph33.2 kmh 30.00 in1015.9 mb 0.00 in0.0 mm 0.00 in0.0 mm 0.01 in0.3 mm
05:09 AM 50.0°F10.0°C 46.0°F7.8°C 86% 9.2 mph W14.8 kmh W 16.8 mph27.0 kmh 29.99 in1015.6 mb 0.01 in0.3 mm 0.00 in0.0 mm 0.01 in0.3 mm
05:04 AM 50.2°F10.1°C 46.2°F7.9°C 86% 9.8 mph NW15.8 kmh NW 12.1 mph19.5 kmh 29.99 in1015.6 mb 0.01 in0.3 mm 0.00 in0.0 mm 0.01 in0.3 mm
04:59 AM 50.2°F10.1°C 46.2°F7.9°C 86% 11.4 mph NW18.3 kmh NW 18.3 mph29.5 kmh 29.98 in1015.2 mb 0.01 in0.3 mm 0.00 in0.0 mm 0.01 in0.3 mm
04:54 AM 50.4°F10.2°C 46.3°F7.9°C 86% 9.8 mph WNW15.8 kmh WNW 13.6 mph21.9 kmh 29.98 in1015.2 mb 0.01 in0.3 mm 0.00 in0.0 mm 0.01 in0.3 mm
04:49 AM 50.5°F10.3°C 46.5°F8.1°C 86% 13.0 mph SW20.9 kmh SW 18.3 mph29.5 kmh 29.98 in1015.2 mb 0.01 in0.3 mm 0.00 in0.0 mm 0.01 in0.3 mm
04:44 AM 50.5°F10.3°C 46.5°F8.1°C 86% 10.7 mph W17.2 kmh W 16.8 mph27.0 kmh 29.98 in1015.2 mb 0.01 in0.3 mm 0.00 in0.0 mm 0.01 in0.3 mm
04:39 AM 50.5°F10.3°C 46.5°F8.1°C 86% 10.7 mph SSW17.2 kmh SSW 18.3 mph29.5 kmh 29.98 in1015.2 mb 0.01 in0.3 mm 0.00 in0.0 mm 0.01 in0.3 mm
04:34 AM 50.5°F10.3°C 46.5°F8.1°C 86% 9.8 mph NW15.8 kmh NW 13.6 mph21.9 kmh 29.97 in1014.9 mb 0.01 in0.3 mm 0.00 in0.0 mm 0.01 in0.3 mm
04:29 AM 50.5°F10.3°C 46.5°F8.1°C 86% 13.0 mph NW20.9 kmh NW 20.6 mph33.2 kmh 29.96 in1014.6 mb 0.01 in0.3 mm 0.00 in0.0 mm 0.01 in0.3 mm
04:24 AM 50.5°F10.3°C 46.5°F8.1°C 86% 9.2 mph W14.8 kmh W 20.6 mph33.2 kmh 29.97 in1014.9 mb 0.01 in0.3 mm 0.00 in0.0 mm 0.01 in0.3 mm
04:19 AM 50.7°F10.4°C 46.7°F8.2°C 86% 12.1 mph NW19.5 kmh NW 15.9 mph25.6 kmh 29.97 in1014.9 mb 0.01 in0.3 mm 0.12 in3.0 mm 0.01 in0.3 mm
04:14 AM 50.7°F10.4°C 46.4°F8.0°C 85% 9.2 mph WNW14.8 kmh WNW 13.6 mph21.9 kmh 29.97 in1014.9 mb 0.00 in0.0 mm 0.00 in0.0 mm 0.00 in0.0 mm
04:09 AM 50.9°F10.5°C 46.6°F8.1°C 85% 10.7 mph 17.2 kmh 16.8 mph27.0 kmh 29.96 in1014.6 mb 0.00 in0.0 mm 0.00 in0.0 mm 0.00 in0.0 mm
04:04 AM 50.9°F10.5°C 46.2°F7.9°C 84% 9.8 mph S15.8 kmh S 14.5 mph23.3 kmh 29.97 in1014.9 mb 0.00 in0.0 mm 0.00 in0.0 mm 0.00 in0.0 mm
03:59 AM 50.9°F10.5°C 46.2°F7.9°C 84% 9.8 mph S15.8 kmh S 14.5 mph23.3 kmh 29.96 in1014.6 mb 0.00 in0.0 mm 0.00 in0.0 mm 0.00 in0.0 mm
03:54 AM 50.9°F10.5°C 46.2°F7.9°C 84% 10.7 mph W17.2 kmh W 13.6 mph21.9 kmh 29.97 in1014.9 mb 0.00 in0.0 mm 0.00 in0.0 mm 0.00 in0.0 mm
03:49 AM 51.3°F10.7°C 46.3°F7.9°C 83% 6.0 mph NW9.7 kmh NW 9.8 mph15.8 kmh 29.96 in1014.6 mb 0.00 in0.0 mm 0.00 in0.0 mm 0.00 in0.0 mm
03:44 AM 51.4°F10.8°C 46.5°F8.1°C 83% 13.6 mph S21.9 kmh S 22.8 mph36.7 kmh 29.96 in1014.6 mb 0.00 in0.0 mm 0.00 in0.0 mm 0.00 in0.0 mm
03:39 AM 51.6°F10.9°C 46.0°F7.8°C 81% 10.7 mph W17.2 kmh W 17.4 mph28.0 kmh 29.97 in1014.9 mb 0.00 in0.0 mm 0.00 in0.0 mm 0.00 in0.0 mm
03:34 AM 51.8°F11.0°C 45.8°F7.7°C 80% 6.0 mph SW9.7 kmh SW 9.2 mph14.8 kmh 29.97 in1014.9 mb 0.00 in0.0 mm 0.00 in0.0 mm 0.00 in0.0 mm
03:29 AM 52.2°F11.2°C 45.8°F7.7°C 79% 10.7 mph W17.2 kmh W 14.5 mph23.3 kmh 29.97 in1014.9 mb 0.00 in0.0 mm 0.00 in0.0 mm 0.00 in0.0 mm
03:24 AM 52.3°F11.3°C 46.0°F7.8°C 79% 6.0 mph SSW9.7 kmh SSW 13.0 mph20.9 kmh 29.97 in1014.9 mb 0.00 in0.0 mm 0.00 in0.0 mm 0.00 in0.0 mm
03:19 AM 52.5°F11.4°C 45.9°F7.7°C 78% 9.2 mph 14.8 kmh 17.4 mph28.0 kmh 29.98 in1015.2 mb 0.00 in0.0 mm 0.00 in0.0 mm 0.00 in0.0 mm
03:14 AM 52.7°F11.5°C 46.0°F7.8°C 78% 6.9 mph W11.1 kmh W 11.4 mph18.3 kmh 29.98 in1015.2 mb 0.00 in0.0 mm 0.00 in0.0 mm 0.00 in0.0 mm
03:09 AM 53.1°F11.7°C 46.0°F7.8°C 77% 6.9 mph NW11.1 kmh NW 11.4 mph18.3 kmh 29.98 in1015.2 mb 0.00 in0.0 mm 0.00 in0.0 mm 0.00 in0.0 mm
03:04 AM 53.1°F11.7°C 45.7°F7.6°C 76% 3.8 mph SW6.1 kmh SW 6.9 mph11.1 kmh 29.98 in1015.2 mb 0.00 in0.0 mm 0.00 in0.0 mm 0.00 in0.0 mm
02:59 AM 53.1°F11.7°C 45.3°F7.4°C 75% 11.4 mph WNW18.3 kmh WNW 15.9 mph25.6 kmh 29.99 in1015.6 mb 0.00 in0.0 mm 0.00 in0.0 mm 0.00 in0.0 mm
02:54 AM 53.1°F11.7°C 45.3°F7.4°C 75% 13.0 mph SW20.9 kmh SW 26.6 mph42.8 kmh 29.99 in1015.6 mb 0.00 in0.0 mm 0.00 in0.0 mm 0.00 in0.0 mm
02:49 AM 52.9°F11.6°C 45.2°F7.3°C 75% 7.6 mph S12.2 kmh S 13.6 mph21.9 kmh 29.99 in1015.6 mb 0.00 in0.0 mm 0.00 in0.0 mm 0.00 in0.0 mm
02:44 AM 52.9°F11.6°C 45.5°F7.5°C 76% 7.6 mph SW12.2 kmh SW 12.1 mph19.5 kmh 29.99 in1015.6 mb 0.00 in0.0 mm 0.00 in0.0 mm 0.00 in0.0 mm
02:39 AM 52.7°F11.5°C 45.3°F7.4°C 76% 6.9 mph SSW11.1 kmh SSW 10.7 mph17.2 kmh 29.99 in1015.6 mb 0.00 in0.0 mm 0.00 in0.0 mm 0.00 in0.0 mm
02:34 AM 52.7°F11.5°C 45.3°F7.4°C 76% 7.6 mph NW12.2 kmh NW 10.7 mph17.2 kmh 30.00 in1015.9 mb 0.00 in0.0 mm 0.00 in0.0 mm 0.00 in0.0 mm
02:29 AM 52.5°F11.4°C 45.5°F7.5°C 77% 7.6 mph 12.2 kmh 13.0 mph20.9 kmh 30.00 in1015.9 mb 0.00 in0.0 mm 0.00 in0.0 mm 0.00 in0.0 mm
02:24 AM 52.5°F11.4°C 45.5°F7.5°C 77% 4.5 mph NW7.2 kmh NW 6.9 mph11.1 kmh 30.00 in1015.9 mb 0.00 in0.0 mm 0.00 in0.0 mm 0.00 in0.0 mm
02:19 AM 52.5°F11.4°C 45.5°F7.5°C 77% 7.6 mph SW12.2 kmh SW 12.1 mph19.5 kmh 30.00 in1015.9 mb 0.00 in0.0 mm 0.00 in0.0 mm 0.00 in0.0 mm
02:14 AM 52.3°F11.3°C 45.3°F7.4°C 77% 6.0 mph SW9.7 kmh SW 8.3 mph13.4 kmh 30.01 in1016.3 mb 0.00 in0.0 mm 0.00 in0.0 mm 0.00 in0.0 mm
02:09 AM 52.3°F11.3°C 45.3°F7.4°C 77% 7.6 mph WNW12.2 kmh WNW 10.7 mph17.2 kmh 30.00 in1015.9 mb 0.00 in0.0 mm 0.00 in0.0 mm 0.00 in0.0 mm
02:04 AM 52.2°F11.2°C 45.5°F7.5°C 78% 7.6 mph SW12.2 kmh SW 9.2 mph14.8 kmh 30.01 in1016.3 mb 0.00 in0.0 mm 0.00 in0.0 mm 0.00 in0.0 mm
01:59 AM 52.2°F11.2°C 45.5°F7.5°C 78% 7.6 mph SW12.2 kmh SW 9.2 mph14.8 kmh 30.00 in1015.9 mb 0.00 in0.0 mm 0.00 in0.0 mm 0.00 in0.0 mm
01:54 AM 52.2°F11.2°C 45.8°F7.7°C 79% 3.8 mph NE6.1 kmh NE 6.0 mph9.7 kmh 30.00 in1015.9 mb 0.00 in0.0 mm 0.00 in0.0 mm 0.00 in0.0 mm
01:49 AM 52.2°F11.2°C 45.8°F7.7°C 79% 4.5 mph W7.2 kmh W 6.0 mph9.7 kmh 30.00 in1015.9 mb 0.00 in0.0 mm 0.00 in0.0 mm 0.00 in0.0 mm
01:44 AM 52.2°F11.2°C 45.8°F7.7°C 79% 3.1 mph S5.0 kmh S 6.9 mph11.1 kmh 30.01 in1016.3 mb 0.00 in0.0 mm 0.00 in0.0 mm 0.00 in0.0 mm
01:39 AM 52.2°F11.2°C 45.8°F7.7°C 79% 4.5 mph SW7.2 kmh SW 9.8 mph15.8 kmh 30.01 in1016.3 mb 0.00 in0.0 mm 0.00 in0.0 mm 0.00 in0.0 mm
01:34 AM 52.2°F11.2°C 46.2°F7.9°C 80% 5.4 mph S8.7 kmh S 9.2 mph14.8 kmh 30.02 in1016.6 mb 0.00 in0.0 mm 0.00 in0.0 mm 0.00 in0.0 mm
01:29 AM 52.2°F11.2°C 46.2°F7.9°C 80% 8.3 mph S13.4 kmh S 13.6 mph21.9 kmh 30.01 in1016.3 mb 0.00 in0.0 mm 0.00 in0.0 mm 0.00 in0.0 mm
01:24 AM 52.2°F11.2°C 46.2°F7.9°C 80% 7.6 mph SW12.2 kmh SW 11.4 mph18.3 kmh 30.02 in1016.6 mb 0.00 in0.0 mm 0.00 in0.0 mm 0.00 in0.0 mm
01:19 AM 52.0°F11.1°C 46.3°F7.9°C 81% 7.6 mph S12.2 kmh S 13.0 mph20.9 kmh 30.02 in1016.6 mb 0.00 in0.0 mm 0.00 in0.0 mm 0.00 in0.0 mm
01:14 AM 52.0°F11.1°C 46.3°F7.9°C 81% 6.0 mph SW9.7 kmh SW 9.2 mph14.8 kmh 30.03 in1016.9 mb 0.00 in0.0 mm 0.00 in0.0 mm 0.00 in0.0 mm
01:09 AM 52.0°F11.1°C 46.7°F8.2°C 82% 7.6 mph NW12.2 kmh NW 11.4 mph18.3 kmh 30.03 in1016.9 mb 0.00 in0.0 mm 0.00 in0.0 mm 0.00 in0.0 mm
01:04 AM 52.0°F11.1°C 46.7°F8.2°C 82% 9.2 mph SW14.8 kmh SW 13.6 mph21.9 kmh 30.03 in1016.9 mb 0.00 in0.0 mm 0.00 in0.0 mm 0.00 in0.0 mm
12:59 AM 51.8°F11.0°C 46.5°F8.1°C 82% 8.3 mph SW13.4 kmh SW 13.6 mph21.9 kmh 30.03 in1016.9 mb 0.00 in0.0 mm 0.00 in0.0 mm 0.00 in0.0 mm
12:54 AM 51.8°F11.0°C 46.5°F8.1°C 82% 8.3 mph S13.4 kmh S 11.4 mph18.3 kmh 30.04 in1017.3 mb 0.00 in0.0 mm 0.00 in0.0 mm 0.00 in0.0 mm
12:49 AM 51.8°F11.0°C 46.8°F8.2°C 83% 7.6 mph SW12.2 kmh SW 10.7 mph17.2 kmh 30.04 in1017.3 mb 0.00 in0.0 mm 0.00 in0.0 mm 0.00 in0.0 mm
12:44 AM 51.8°F11.0°C 46.8°F8.2°C 83% 6.0 mph SW9.7 kmh SW 12.1 mph19.5 kmh 30.04 in1017.3 mb 0.00 in0.0 mm 0.00 in0.0 mm 0.00 in0.0 mm
12:39 AM 51.8°F11.0°C 46.8°F8.2°C 83% 8.3 mph SSW13.4 kmh SSW 11.4 mph18.3 kmh 30.04 in1017.3 mb 0.00 in0.0 mm 0.00 in0.0 mm 0.00 in0.0 mm
12:34 AM 51.8°F11.0°C 46.8°F8.2°C 83% 6.0 mph SW9.7 kmh SW 9.2 mph14.8 kmh 30.04 in1017.3 mb 0.00 in0.0 mm 0.00 in0.0 mm 0.00 in0.0 mm
12:29 AM 51.8°F11.0°C 47.1°F8.4°C 84% 6.9 mph W11.1 kmh W 12.1 mph19.5 kmh 30.04 in1017.3 mb 0.00 in0.0 mm 0.00 in0.0 mm 0.00 in0.0 mm
12:24 AM 51.8°F11.0°C 47.1°F8.4°C 84% 8.3 mph SSW13.4 kmh SSW 14.5 mph23.3 kmh 30.05 in1017.6 mb 0.00 in0.0 mm 0.00 in0.0 mm 0.00 in0.0 mm
12:19 AM 51.8°F11.0°C 47.1°F8.4°C 84% 4.5 mph S7.2 kmh S 6.9 mph11.1 kmh 30.05 in1017.6 mb 0.00 in0.0 mm 0.00 in0.0 mm 0.00 in0.0 mm
12:14 AM 51.8°F11.0°C 47.1°F8.4°C 84% 2.2 mph SW3.5 kmh SW 5.4 mph8.7 kmh 30.06 in1017.9 mb 0.00 in0.0 mm 0.00 in0.0 mm 0.00 in0.0 mm
12:09 AM 51.8°F11.0°C 47.1°F8.4°C 84% 5.4 mph S8.7 kmh S 8.3 mph13.4 kmh 30.07 in1018.3 mb 0.00 in0.0 mm 0.00 in0.0 mm 0.00 in0.0 mm
12:04 AM 51.8°F11.0°C 47.4°F8.6°C 85% 8.3 mph SW13.4 kmh SW 13.0 mph20.9 kmh 30.07 in1018.3 mb 0.00 in0.0 mm 0.00 in0.0 mm 0.00 in0.0 mm